Pacaja, Brazil
Current Conditions -  °F | °C
As of 6:30 PM on Friday 28 Nov 2014 (Local Time) from SBTU Reporting Station
Clear Clear  
Wind Chill: 82°   Ceiling: Unl
Heat Index: 89°   Visibility: 6mi
Dew Point: 75°   Wind: 0mph
Humidity: 79%   Direction: NA
Pressure: 29.88"   Gusts: NA
Location:  3.84°S, 50.64°W
Report Text: SBTU 282130Z 00000KT CAVOK 28/24 Q1012
Loading
Personal Weather Stations






























Interactive Weather Map New forecast layout! Learn more

10-Day Weather Forecast

Advertisements
Track Severe Weather on mobile